Flight Track Log - Related Links

Times and Time Zones

All times are in EDT time to prevent confusion due to time zone crossing. See the SKW6432 flight status page for this flight to view local times or setup timezone preferences in your user account.

Time Position Orientation Groundspeed Altitude Reporting Facility
EDT Latitude Longitude Course Direction KTS MPH feet Rate Location/Type
Sat 10:11:00 PM 32.7667 -117.2500 320° Northwest 189 217 2,200  Level Southern California TRACON
Sat 10:12:00 PM 32.7833 -117.3000 292° West 194 223 3,700 1,259 Climbing Southern California TRACON
Sat 10:12:21 PM 32.7953 -117.3167 310° West 191 220 3,900 1,084 Climbing Los Angeles Center
Sat 10:13:00 PM 32.8860 -117.3360 320° Northwest  Level FlightAware Approximate
Sat 10:13:23 PM 32.8247 -117.3742 301° West 201 231 5,200  Level Los Angeles Center
Sat 10:14:00 PM 32.9372 -117.3872 320° Northwest  Level FlightAware Approximate
Sat 10:14:24 PM 32.8608 -117.4475 300° West 211 243 6,900  Level Los Angeles Center
Sat 10:15:00 PM 32.9884 -117.4384 320° Northwest  Level FlightAware Approximate
Sat 10:15:25 PM 32.9122 -117.4883 326° Northwest 221 254 8,000  Level Los Angeles Center
Sat 10:16:00 PM 33.0348 -117.4846 320° Northwest  Level FlightAware Approximate
Sat 10:16:27 PM 32.9681 -117.5367 324° Northwest 242 278 8,000  Level Los Angeles Center
Sat 10:17:28 PM 33.0161 -117.6058 310° West 267 307 8,000  Level Los Angeles Center
Sat 10:18:29 PM 33.0594 -117.6711 308° West 255 293 8,000  Level Los Angeles Center
Sat 10:19:31 PM 33.1039 -117.7322 311° West 246 283 8,000  Level Los Angeles Center
Sat 10:20:32 PM 33.1539 -117.7811 321° Northwest 238 274 8,000  Level Los Angeles Center
Sat 10:21:33 PM 33.2156 -117.8097 339° North 236 272 8,000  Level Los Angeles Center
Sat 10:22:35 PM 33.2783 -117.8364 340° North 239 275 8,000  Level Los Angeles Center
Sat 10:23:36 PM 33.3531 -117.8481 353° North 239 275 8,000  Level Los Angeles Center
Sat 10:24:37 PM 33.4139 -117.8353 10° North 228 262 8,000  Level Los Angeles Center
Sat 10:24:55 PM 33.4333 -117.8333 North 212 244 8,000  Level Southern California TRACON
Sat 10:25:55 PM 33.4667 -117.7833 51° Northeast 200 230 8,000  Level Southern California TRACON
Sat 10:26:56 PM 33.5167 -117.7667 16° North 203 234 8,000  Level Southern California TRACON
Sat 10:28:02 PM 33.5500 -117.8167 309° West 208 239 8,000  Level Southern California TRACON
Sat 10:29:02 PM 33.6000 -117.8667 320° Northwest 211 243 8,000 -178 Level Southern California TRACON
Sat 10:29:43 PM 33.6222 -117.8981 310° West 214 246 7,700 -700 Descending Los Angeles Center
Sat 10:30:02 PM 33.6500 -117.9167 331° Northwest 253 291 7,300 -532 Descending Southern California TRACON
Sat 10:31:02 PM 33.7000 -117.9833 312° West 262 302 7,000 -150 Descending Southern California TRACON
Sat 10:32:02 PM 33.7500 -118.0333 320° Northwest 260 299 7,000  Level Southern California TRACON
Sat 10:33:02 PM 33.8167 -118.0667 337° Northwest 257 296 7,000 -350 Level Southern California TRACON
Sat 10:34:02 PM 33.8667 -118.1000 331° Northwest 217 250 6,300 -889 Descending Southern California TRACON
Sat 10:34:50 PM 33.9117 -118.1333 328° Northwest 223 257 5,400 -1,222 Descending Los Angeles Center
Sat 10:35:50 PM 33.9364 -118.1828 301° West 223 257 4,100 -1,574 Descending Los Angeles Center
Sat 10:36:52 PM 33.9517 -118.2642 283° West 214 246 2,200 -1,317 Descending Los Angeles Center
Sat 10:37:53 PM 33.9447 -118.3125 260° West 198 228 1,400 -787 Descending Los Angeles Center

Login

Don't have an account? Register now (free) for customized features, flight alerts, and more!